الصفحة الرئيسية
METAR-TAF:

METAR-TAF

مطار :

بنوم بنه, كمبوديا

دائرة عرض: 11-33N, خط طول: 104-51E, ارتفاع: 10 متر

مراقبة الطقس الحالي

تاريخ ووقت الإصدار 31 دقيقة قبل الساعة 05:30UTC
ريح 4 عقدة من الغرب, الاتجاه يتراوح بين الجنوب الغربي و الشمال الغربي
درجة الحرارة 35°درجة مئوية
الرطوبة 53%
ضغط 1004 hPa
الرؤية 10 كم أو أكثر
غيوم متفرقة على ارتفاع 1500 قدم
غيوم قليلة على ارتفاع 1700 قدم, مزنة ركامية.

METAR: VDPP 190530Z 28004KT 230V320 9999 SCT015 FEW017CB 35/24 Q1004 RMK CB:N/SW

زمن: 13:01 (06:01 UTC)

توقعات

تاريخ ووقت الإصدار 1ساعة و 1 دقيقة قبل الساعة 05:00UTC
التوقعات صالحة من19 الساعة 06 UTC إلى 19 الساعة 24 UTC
ريح 8 عقدة من الجنوب/الجنوب الغربي
الرؤية 10 كم أو أكثر
غيوم متفرقة على ارتفاع 1700 قدم
مؤقت
من 19 الساعة 07 UTC إلى 19 الساعة 12 UTC
غيوم متفرقة على ارتفاع 1500 قدم
غيوم قليلة على ارتفاع 1700 قدم, مزنة ركامية.
غيوم متفرقة على ارتفاع 4000 قدم

TAF: VDPP 190500Z 1906/1924 21008KT 9999 SCT017 TEMPO 1907/1912 SCT015 FEW017CB SCT040

أرصاد الطقس والتوقعات من أكثر من 4000 مطار (تقارير الطقس للمطار METAR والتنبؤ بالطقس بالمطارTAF).

المحطات المتاحة هي النقط الصفراء والحمراء على الخريطة.

حرك المؤشر فوق النقطة لمعرفة اسم المحطة.

ثم انقر لمعرفة أرصاد وتوقعات الطقس.

لتغيير الخارطة: اضغط على الأزرار الخضراء مع رمز الصليب الأسود للتكبير. على الزر الأخضر مع شرطة للتصغير، أو على الأسهم الخضراء للخرائط المجاورة.


METAR-TAF: